createdAt,value
2019-03-23T00:00:49.171Z,19.21
2019-03-23T00:01:49.090Z,19.22
2019-03-23T00:02:49.240Z,19.2
2019-03-23T00:03:49.097Z,19.21
2019-03-23T00:04:49.106Z,19.21
2019-03-23T00:05:49.133Z,19.18
2019-03-23T00:06:49.218Z,19.18
2019-03-23T00:07:49.146Z,19.21
2019-03-23T00:08:49.239Z,19.2
2019-03-23T00:09:49.273Z,19.18
2019-03-23T00:10:49.290Z,19.2
2019-03-23T00:11:49.283Z,19.2
2019-03-23T00:12:49.212Z,19.16
2019-03-23T00:13:49.329Z,19.18
2019-03-23T00:14:49.322Z,19.15
2019-03-23T00:15:49.395Z,19.15
2019-03-23T00:16:49.349Z,19.16
2019-03-23T00:17:49.082Z,19.13
2019-03-23T00:18:49.133Z,19.13
2019-03-23T00:19:49.576Z,19.15
2019-03-23T00:20:49.125Z,19.14
2019-03-23T00:21:49.054Z,19.14
2019-03-23T00:22:49.112Z,19.15
2019-03-23T00:23:49.087Z,19.13
2019-03-23T00:24:49.269Z,19.13
2019-03-23T00:25:49.226Z,19.13
2019-03-23T00:26:49.128Z,19.14
2019-03-23T00:27:49.172Z,19.13
2019-03-23T00:28:49.302Z,19.14
2019-03-23T00:29:49.167Z,19.12
2019-03-23T00:30:49.250Z,19.13
2019-03-23T00:31:49.205Z,19.11
2019-03-23T00:32:49.215Z,19.1
2019-03-23T00:33:49.280Z,19.1
2019-03-23T00:34:49.242Z,19.12
2019-03-23T00:35:49.112Z,19.11
2019-03-23T00:36:49.089Z,19.09
2019-03-23T00:37:49.095Z,19.1
2019-03-23T00:38:49.147Z,19.1
2019-03-23T00:39:49.098Z,19.09
2019-03-23T00:40:49.193Z,19.09
2019-03-23T00:41:49.097Z,19.1
2019-03-23T00:42:49.114Z,19.09
2019-03-23T00:43:49.283Z,19.07
2019-03-23T00:44:49.160Z,19.09
2019-03-23T00:45:49.161Z,19.07
2019-03-23T00:46:49.285Z,19.08
2019-03-23T00:47:49.219Z,19.05
2019-03-23T00:48:49.213Z,19.08
2019-03-23T00:49:49.242Z,19.07
2019-03-23T00:50:49.282Z,19.08
2019-03-23T00:51:49.256Z,19.07
2019-03-23T00:52:49.378Z,19.06
2019-03-23T00:53:49.030Z,19.06
2019-03-23T00:54:49.056Z,19.05
2019-03-23T00:55:49.016Z,19.05
2019-03-23T00:56:49.028Z,19.05
2019-03-23T00:57:49.157Z,19.05
2019-03-23T00:58:49.038Z,19.03
2019-03-23T00:59:49.056Z,19.05
2019-03-23T01:00:49.177Z,19.03
2019-03-23T01:01:49.155Z,19.03
2019-03-23T01:02:49.246Z,19.05
2019-03-23T01:03:49.194Z,19.05
2019-03-23T01:04:49.253Z,19.05
2019-03-23T01:05:49.260Z,19.06
2019-03-23T01:06:52.681Z,19.02
2019-03-23T01:07:49.332Z,19.01
2019-03-23T01:08:49.174Z,19.01
2019-03-23T01:09:49.420Z,19.01
2019-03-23T01:10:49.291Z,19.02
2019-03-23T01:11:49.220Z,19.02
2019-03-23T01:12:49.041Z,19
2019-03-23T01:13:49.041Z,18.98
2019-03-23T01:14:49.178Z,18.98
2019-03-23T01:15:49.171Z,19
2019-03-23T01:16:49.151Z,19
2019-03-23T01:17:49.070Z,18.99
2019-03-23T01:18:49.119Z,19
2019-03-23T01:19:49.269Z,18.98
2019-03-23T01:20:50.244Z,18.98
2019-03-23T01:21:49.147Z,19
2019-03-23T01:22:49.150Z,18.97
2019-03-23T01:23:49.207Z,18.99
2019-03-23T01:24:49.408Z,18.97
2019-03-23T01:25:49.276Z,18.96
2019-03-23T01:26:49.215Z,18.98
2019-03-23T01:27:49.341Z,18.96
2019-03-23T01:28:49.319Z,18.98
2019-03-23T01:29:49.308Z,18.96
2019-03-23T01:30:49.268Z,18.97
2019-03-23T01:31:49.356Z,18.95
2019-03-23T01:32:49.000Z,18.96
2019-03-23T01:33:49.146Z,18.97
2019-03-23T01:34:49.036Z,18.94
2019-03-23T01:35:49.029Z,18.95
2019-03-23T01:36:49.146Z,18.94
2019-03-23T01:37:49.113Z,18.94
2019-03-23T01:38:49.063Z,18.94
2019-03-23T01:39:49.105Z,18.94
2019-03-23T01:40:49.112Z,18.93
2019-03-23T01:41:49.112Z,18.92
2019-03-23T01:42:50.269Z,18.94
2019-03-23T01:43:49.208Z,18.92
2019-03-23T01:44:49.294Z,18.94
2019-03-23T01:45:49.149Z,18.92
2019-03-23T01:46:49.203Z,18.92
2019-03-23T01:47:49.392Z,18.93
2019-03-23T01:48:49.216Z,18.89
2019-03-23T01:49:49.234Z,18.89
2019-03-23T01:50:49.002Z,18.94
2019-03-23T01:51:49.006Z,18.93
2019-03-23T01:52:49.027Z,18.92
2019-03-23T01:53:49.059Z,18.91
2019-03-23T01:54:49.078Z,18.89
2019-03-23T01:55:49.080Z,18.88
2019-03-23T01:56:49.093Z,18.92
2019-03-23T01:57:49.118Z,18.91
2019-03-23T01:58:49.136Z,18.88
2019-03-23T01:59:49.146Z,18.88
2019-03-23T02:00:49.226Z,18.87
2019-03-23T02:01:49.185Z,18.88
2019-03-23T02:02:49.165Z,18.87
2019-03-23T02:03:49.288Z,18.88
2019-03-23T02:04:49.194Z,18.88
2019-03-23T02:05:49.319Z,18.88
2019-03-23T02:06:49.390Z,18.87
2019-03-23T02:07:49.358Z,18.87
2019-03-23T02:08:49.247Z,18.87
2019-03-23T02:09:49.021Z,18.86
2019-03-23T02:10:48.987Z,18.86
2019-03-23T02:11:49.192Z,18.87
2019-03-23T02:12:49.052Z,18.85
2019-03-23T02:13:49.241Z,18.84
2019-03-23T02:14:49.054Z,18.85
2019-03-23T02:15:49.075Z,18.86
2019-03-23T02:16:49.231Z,18.85
2019-03-23T02:17:49.139Z,18.83
2019-03-23T02:18:49.213Z,18.84
2019-03-23T02:19:49.121Z,18.83
2019-03-23T02:20:49.302Z,18.82
2019-03-23T02:21:49.152Z,18.84
2019-03-23T02:22:49.230Z,18.84
2019-03-23T02:23:49.164Z,18.86
2019-03-23T02:24:49.305Z,18.84
2019-03-23T02:25:49.214Z,18.83
2019-03-23T02:26:49.013Z,18.84
2019-03-23T02:27:49.089Z,18.82
2019-03-23T02:28:49.099Z,18.83
2019-03-23T02:29:49.121Z,18.82
2019-03-23T02:30:49.180Z,18.82
2019-03-23T02:31:49.220Z,18.79
2019-03-23T02:32:49.129Z,18.82
2019-03-23T02:33:49.084Z,18.82
2019-03-23T02:34:49.147Z,18.8
2019-03-23T02:35:49.142Z,18.82
2019-03-23T02:36:49.156Z,18.8
2019-03-23T02:37:49.316Z,18.81
2019-03-23T02:38:49.141Z,18.82
2019-03-23T02:39:49.150Z,18.79
2019-03-23T02:40:49.271Z,18.8
2019-03-23T02:41:49.312Z,18.81
2019-03-23T02:42:49.371Z,18.8
2019-03-23T02:43:49.318Z,18.8
2019-03-23T02:44:49.362Z,18.81
2019-03-23T02:45:49.001Z,18.79
2019-03-23T02:46:49.019Z,18.81
2019-03-23T02:47:49.001Z,18.79
2019-03-23T02:48:49.009Z,18.79
2019-03-23T02:49:49.573Z,18.79
2019-03-23T02:50:49.705Z,18.79
2019-03-23T02:51:49.214Z,18.78
2019-03-23T02:52:49.276Z,18.8
2019-03-23T02:53:49.168Z,18.77
2019-03-23T02:54:49.219Z,18.78
2019-03-23T02:55:49.131Z,18.78
2019-03-23T02:56:49.276Z,18.77
2019-03-23T02:57:49.135Z,18.77
2019-03-23T02:58:49.286Z,18.77
2019-03-23T02:59:49.276Z,18.76
2019-03-23T03:00:49.266Z,18.76
2019-03-23T03:01:49.228Z,18.77
2019-03-23T03:02:49.196Z,18.78
2019-03-23T03:03:49.066Z,18.77
2019-03-23T03:04:49.087Z,18.77
2019-03-23T03:05:49.127Z,18.74
2019-03-23T03:06:49.166Z,18.74
2019-03-23T03:07:49.083Z,18.76
2019-03-23T03:08:49.151Z,18.74
2019-03-23T03:09:49.262Z,18.76
2019-03-23T03:10:49.150Z,18.72
2019-03-23T03:11:49.289Z,18.72
2019-03-23T03:12:49.106Z,18.74
2019-03-23T03:13:49.187Z,18.73
2019-03-23T03:14:49.253Z,18.74
2019-03-23T03:15:49.250Z,18.73
2019-03-23T03:16:49.329Z,18.72
2019-03-23T03:17:49.165Z,18.72
2019-03-23T03:18:49.204Z,18.73
2019-03-23T03:19:49.190Z,18.74
2019-03-23T03:20:49.230Z,18.72
2019-03-23T03:21:49.328Z,18.71
2019-03-23T03:22:49.090Z,18.72
2019-03-23T03:23:49.042Z,18.72
2019-03-23T03:24:49.103Z,18.72
2019-03-23T03:25:49.092Z,18.72
2019-03-23T03:26:49.203Z,18.7
2019-03-23T03:27:49.019Z,18.7
2019-03-23T03:28:49.328Z,18.71
2019-03-23T03:29:49.078Z,18.71
2019-03-23T03:30:49.258Z,18.69
2019-03-23T03:31:49.105Z,18.69
2019-03-23T03:32:49.152Z,18.69
2019-03-23T03:33:49.382Z,18.68
2019-03-23T03:34:49.670Z,18.69
2019-03-23T03:35:49.195Z,18.68
2019-03-23T03:36:49.333Z,18.69
2019-03-23T03:37:57.589Z,18.69
2019-03-23T03:38:49.215Z,18.69
2019-03-23T03:39:49.078Z,18.69
2019-03-23T03:40:49.007Z,18.68
2019-03-23T03:41:48.988Z,18.68
2019-03-23T03:42:49.148Z,18.69
2019-03-23T03:43:49.168Z,18.66
2019-03-23T03:44:49.135Z,18.66
2019-03-23T03:45:49.129Z,18.67
2019-03-23T03:46:49.061Z,18.68
2019-03-23T03:47:49.184Z,18.67
2019-03-23T03:48:49.456Z,18.69
2019-03-23T03:49:49.218Z,18.67
2019-03-23T03:50:49.204Z,18.67
2019-03-23T03:51:49.235Z,18.66
2019-03-23T03:52:49.291Z,18.66
2019-03-23T03:53:49.295Z,18.67
2019-03-23T03:54:49.315Z,18.66
2019-03-23T03:55:49.488Z,18.67
2019-03-23T03:56:51.115Z,18.64
2019-03-23T03:57:49.163Z,18.68
2019-03-23T03:58:49.043Z,18.65
2019-03-23T03:59:48.992Z,18.65
2019-03-23T04:00:49.297Z,18.66
2019-03-23T04:01:49.088Z,18.64
2019-03-23T04:02:49.081Z,18.66
2019-03-23T04:03:49.159Z,18.65
2019-03-23T04:04:49.045Z,18.65
2019-03-23T04:05:49.377Z,18.63
2019-03-23T04:06:49.283Z,18.64
2019-03-23T04:07:49.186Z,18.63
2019-03-23T04:08:49.304Z,18.63
2019-03-23T04:09:49.407Z,18.64
2019-03-23T04:10:49.145Z,18.62
2019-03-23T04:11:49.208Z,18.62
2019-03-23T04:12:49.204Z,18.64
2019-03-23T04:13:49.244Z,18.63
2019-03-23T04:14:49.157Z,18.64
2019-03-23T04:15:49.038Z,18.64
2019-03-23T04:16:49.073Z,18.63
2019-03-23T04:17:49.130Z,18.63
2019-03-23T04:18:49.125Z,18.62
2019-03-23T04:19:49.149Z,18.63
2019-03-23T04:20:49.080Z,18.61
2019-03-23T04:21:49.294Z,18.62
2019-03-23T04:22:49.096Z,18.62
2019-03-23T04:23:49.239Z,18.61
2019-03-23T04:24:49.216Z,18.62
2019-03-23T04:25:49.275Z,18.59
2019-03-23T04:26:49.272Z,18.61
2019-03-23T04:27:49.398Z,18.62
2019-03-23T04:28:49.150Z,18.59
2019-03-23T04:29:49.274Z,18.57
2019-03-23T04:30:49.314Z,18.62
2019-03-23T04:31:49.159Z,18.59
2019-03-23T04:32:49.288Z,18.59
2019-03-23T04:33:48.972Z,18.58
2019-03-23T04:34:48.995Z,18.57
2019-03-23T04:35:48.995Z,18.57
2019-03-23T04:36:49.078Z,18.58
2019-03-23T04:37:48.998Z,18.57
2019-03-23T04:38:48.991Z,18.57
2019-03-23T04:39:49.585Z,18.57
2019-03-23T04:40:49.179Z,18.59
2019-03-23T04:41:49.114Z,18.58
2019-03-23T04:42:49.117Z,18.58
2019-03-23T04:43:49.211Z,18.57
2019-03-23T04:44:49.060Z,18.58
2019-03-23T04:45:49.230Z,18.58
2019-03-23T04:46:49.125Z,18.61
2019-03-23T04:47:49.090Z,18.61
2019-03-23T04:48:49.183Z,18.61
2019-03-23T04:49:49.134Z,18.63
2019-03-23T04:50:49.131Z,18.63
2019-03-23T04:51:49.098Z,18.61
2019-03-23T04:52:49.004Z,18.65
2019-03-23T04:53:48.999Z,18.65
2019-03-23T04:54:49.080Z,18.66
2019-03-23T04:55:49.078Z,18.66
2019-03-23T04:56:49.059Z,18.68
2019-03-23T04:57:49.130Z,18.7
2019-03-23T04:58:49.170Z,18.7
2019-03-23T04:59:49.154Z,18.71
2019-03-23T05:00:49.730Z,18.7
2019-03-23T05:01:49.173Z,18.73
2019-03-23T05:02:49.201Z,18.74
2019-03-23T05:03:49.200Z,18.77
2019-03-23T05:04:49.216Z,18.78
2019-03-23T05:05:49.232Z,18.82
2019-03-23T05:06:49.262Z,18.82
2019-03-23T05:07:49.156Z,18.82
2019-03-23T05:08:49.287Z,18.83
2019-03-23T05:09:48.942Z,18.84
2019-03-23T05:10:49.121Z,18.87
2019-03-23T05:11:48.953Z,18.91
2019-03-23T05:12:49.114Z,18.88
2019-03-23T05:13:49.142Z,18.93
2019-03-23T05:14:49.181Z,18.91
2019-03-23T05:15:49.003Z,18.94
2019-03-23T05:16:49.157Z,18.96
2019-03-23T05:17:49.096Z,18.97
2019-03-23T05:18:49.077Z,18.98
2019-03-23T05:19:49.104Z,18.99
2019-03-23T05:20:49.057Z,19
2019-03-23T05:21:49.083Z,19
2019-03-23T05:22:49.087Z,19.02
2019-03-23T05:23:49.285Z,19.03
2019-03-23T05:24:49.139Z,19.03
2019-03-23T05:25:49.125Z,19.05
2019-03-23T05:26:50.253Z,19.06
2019-03-23T05:27:49.339Z,19.05
2019-03-23T05:28:49.070Z,19.09
2019-03-23T05:29:49.074Z,19.09
2019-03-23T05:30:49.248Z,19.1
2019-03-23T05:31:49.101Z,19.11
2019-03-23T05:32:49.111Z,19.12
2019-03-23T05:33:49.140Z,19.13
2019-03-23T05:34:49.089Z,19.13
2019-03-23T05:35:49.140Z,19.16
2019-03-23T05:36:49.058Z,19.13
2019-03-23T05:37:49.124Z,19.13
2019-03-23T05:38:49.225Z,19.15
2019-03-23T05:39:49.188Z,19.16
2019-03-23T05:40:49.167Z,19.16
2019-03-23T05:41:49.208Z,19.15
2019-03-23T05:42:49.245Z,19.17
2019-03-23T05:43:49.778Z,19.16
2019-03-23T05:44:49.235Z,19.17
2019-03-23T05:45:49.054Z,19.17
2019-03-23T05:46:49.051Z,19.18
2019-03-23T05:47:48.957Z,19.2
2019-03-23T05:48:48.965Z,19.18
2019-03-23T05:49:49.138Z,19.21
2019-03-23T05:50:49.108Z,19.21
2019-03-23T05:51:49.017Z,19.21
2019-03-23T05:52:49.017Z,19.21
2019-03-23T05:53:49.128Z,19.2
2019-03-23T05:54:49.175Z,19.21
2019-03-23T05:55:49.109Z,19.2
2019-03-23T05:56:49.193Z,19.2
2019-03-23T05:57:49.175Z,19.22
2019-03-23T05:58:49.116Z,19.21
2019-03-23T05:59:49.173Z,19.22
2019-03-23T06:00:49.263Z,19.21
2019-03-23T06:01:49.205Z,19.22
2019-03-23T06:02:49.297Z,19.22
2019-03-23T06:03:48.931Z,19.22
2019-03-23T06:04:48.929Z,19.21
2019-03-23T06:05:48.971Z,19.18
2019-03-23T06:06:49.865Z,19.21
2019-03-23T06:07:49.084Z,19.21
2019-03-23T06:08:55.750Z,19.2
2019-03-23T06:09:49.151Z,19.2
2019-03-23T06:10:49.115Z,19.18
2019-03-23T06:11:49.356Z,19.17
2019-03-23T06:12:49.091Z,19.2
2019-03-23T06:13:49.268Z,19.2
2019-03-23T06:14:49.264Z,19.18
2019-03-23T06:15:49.222Z,19.18
2019-03-23T06:16:49.635Z,19.18
2019-03-23T06:17:49.202Z,19.18
2019-03-23T06:18:49.375Z,19.18
2019-03-23T06:19:49.268Z,19.18
2019-03-23T06:20:49.011Z,19.17
2019-03-23T06:21:49.069Z,19.17
2019-03-23T06:22:49.297Z,19.17
2019-03-23T06:23:49.198Z,19.18
2019-03-23T06:24:49.028Z,19.17
2019-03-23T06:25:48.970Z,19.17
2019-03-23T06:26:49.025Z,19.18
2019-03-23T06:27:49.679Z,19.18
2019-03-23T06:28:49.030Z,19.17
2019-03-23T06:29:49.121Z,19.17
2019-03-23T06:30:49.191Z,19.17
2019-03-23T06:31:49.202Z,19.17
2019-03-23T06:32:49.130Z,19.16
2019-03-23T06:33:49.201Z,19.17
2019-03-23T06:34:49.192Z,19.15
2019-03-23T06:35:49.136Z,19.15
2019-03-23T06:36:49.257Z,19.13
2019-03-23T06:37:49.526Z,19.15
2019-03-23T06:38:48.912Z,19.15
2019-03-23T06:39:49.092Z,19.14
2019-03-23T06:40:48.956Z,19.13
2019-03-23T06:41:48.936Z,19.15
2019-03-23T06:43:00.238Z,19.13
2019-03-23T06:43:49.278Z,19.12
2019-03-23T06:44:49.073Z,19.12
2019-03-23T06:45:49.109Z,19.11
2019-03-23T06:46:49.095Z,19.12
2019-03-23T06:47:49.085Z,19.1
2019-03-23T06:48:49.072Z,19.11
2019-03-23T06:49:49.838Z,19.09
2019-03-23T06:50:49.184Z,19.12
2019-03-23T06:51:49.169Z,19.09
2019-03-23T06:52:49.112Z,19.1
2019-03-23T06:53:49.202Z,19.09
2019-03-23T06:54:49.430Z,19.09
2019-03-23T06:55:49.447Z,19.09
2019-03-23T06:56:48.827Z,19.09
2019-03-23T06:57:48.998Z,19.08
2019-03-23T06:58:48.878Z,19.1
2019-03-23T06:59:49.103Z,19.08
2019-03-23T07:00:49.138Z,19.07
2019-03-23T07:01:49.224Z,19.08
2019-03-23T07:02:49.039Z,19.07
2019-03-23T07:03:49.057Z,19.08
2019-03-23T07:04:49.166Z,19.08
2019-03-23T07:05:49.165Z,19.05
2019-03-23T07:06:49.155Z,19.07
2019-03-23T07:07:49.194Z,19.03
2019-03-23T07:08:49.197Z,19.06
2019-03-23T07:09:49.249Z,19.05
2019-03-23T07:10:49.537Z,19.07
2019-03-23T07:11:49.235Z,19.05
2019-03-23T07:12:49.210Z,19.05
2019-03-23T07:13:49.193Z,19.06
2019-03-23T07:14:48.911Z,19.03
2019-03-23T07:15:48.938Z,19.05
2019-03-23T07:16:48.952Z,19.05
2019-03-23T07:17:48.949Z,19.05
2019-03-23T07:18:49.049Z,19.03
2019-03-23T07:19:49.082Z,19.02
2019-03-23T07:20:49.237Z,19.01
2019-03-23T07:21:49.129Z,19.02
2019-03-23T07:22:49.111Z,19.01
2019-03-23T07:23:49.132Z,19.03
2019-03-23T07:24:49.137Z,19.01
2019-03-23T07:25:49.089Z,19.01
2019-03-23T07:26:49.367Z,19.02
2019-03-23T07:27:49.296Z,18.99
2019-03-23T07:28:49.186Z,19
2019-03-23T07:29:49.111Z,19
2019-03-23T07:30:49.188Z,18.99
2019-03-23T07:31:49.223Z,18.99
2019-03-23T07:32:50.022Z,18.99
2019-03-23T07:33:49.054Z,19.01
2019-03-23T07:34:48.953Z,18.99
2019-03-23T07:35:49.075Z,18.99
2019-03-23T07:36:49.048Z,19.05
2019-03-23T07:37:49.108Z,19.01
2019-03-23T07:38:49.114Z,19
2019-03-23T07:39:49.167Z,19.02
2019-03-23T07:40:49.097Z,19
2019-03-23T07:41:49.295Z,18.99
2019-03-23T07:42:49.000Z,18.97
2019-03-23T07:43:49.035Z,18.98
2019-03-23T07:44:49.144Z,18.98
2019-03-23T07:45:49.047Z,18.99
2019-03-23T07:46:49.238Z,18.97
2019-03-23T07:47:49.191Z,18.98
2019-03-23T07:48:49.229Z,18.99
2019-03-23T07:49:48.998Z,18.99
2019-03-23T07:50:48.982Z,19.01
2019-03-23T07:51:49.100Z,19.02
2019-03-23T07:52:48.986Z,19.01
2019-03-23T07:53:48.939Z,18.98
2019-03-23T07:54:49.016Z,18.98
2019-03-23T07:55:49.002Z,19
2019-03-23T07:56:48.998Z,19.01
2019-03-23T07:57:48.984Z,19
2019-03-23T07:58:49.018Z,18.99
2019-03-23T07:59:49.107Z,19
2019-03-23T08:00:49.290Z,18.98
2019-03-23T08:01:49.212Z,18.96
2019-03-23T08:02:49.213Z,18.94
2019-03-23T08:03:49.068Z,18.91
2019-03-23T08:04:49.069Z,18.88
2019-03-23T08:05:49.206Z,18.88
2019-03-23T08:06:48.949Z,18.89
2019-03-23T08:07:48.964Z,18.89
2019-03-23T08:08:48.953Z,18.89
2019-03-23T08:09:48.894Z,18.89
2019-03-23T08:10:49.175Z,18.93
2019-03-23T08:11:49.128Z,18.93
2019-03-23T08:12:48.926Z,18.93
2019-03-23T08:13:48.948Z,18.95
2019-03-23T08:14:49.114Z,18.97
2019-03-23T08:15:49.057Z,18.96
2019-03-23T08:16:48.885Z,18.98
2019-03-23T08:17:48.985Z,18.98
2019-03-23T08:18:48.987Z,18.98
2019-03-23T08:19:49.139Z,18.99
2019-03-23T08:20:49.060Z,19.01
2019-03-23T08:21:49.198Z,19.01
2019-03-23T08:22:49.133Z,19
2019-03-23T08:23:49.224Z,19.02
2019-03-23T08:24:48.847Z,19.03
2019-03-23T08:25:48.888Z,19.05
2019-03-23T08:26:48.966Z,19.06
2019-03-23T08:27:48.983Z,19.05
2019-03-23T08:28:49.227Z,19.07
2019-03-23T08:29:48.917Z,19.05
2019-03-23T08:30:49.022Z,19.07
2019-03-23T08:31:48.963Z,19.07
2019-03-23T08:32:49.063Z,19.06
2019-03-23T08:33:48.966Z,19.06
2019-03-23T08:34:48.974Z,19.08
2019-03-23T08:35:49.023Z,19.05
2019-03-23T08:36:49.014Z,19.08
2019-03-23T08:37:49.347Z,19.08
2019-03-23T08:38:49.038Z,19.09
2019-03-23T08:39:49.259Z,19.09
2019-03-23T08:40:49.152Z,19.09
2019-03-23T08:41:49.209Z,19.06
2019-03-23T08:42:49.067Z,19.11
2019-03-23T08:43:48.859Z,19.07
2019-03-23T08:44:48.830Z,19.09
2019-03-23T08:45:48.852Z,19.09
2019-03-23T08:46:48.925Z,19.09
2019-03-23T08:47:48.844Z,19.09
2019-03-23T08:48:48.886Z,19.09
2019-03-23T08:49:48.963Z,19.1
2019-03-23T08:50:48.957Z,19.1
2019-03-23T08:51:49.093Z,19.07
2019-03-23T08:52:48.976Z,19.09
2019-03-23T08:53:48.970Z,19.09
2019-03-23T08:54:49.086Z,19.11
2019-03-23T08:55:49.048Z,19.11
2019-03-23T08:56:49.087Z,19.11
2019-03-23T08:57:49.001Z,19.14
2019-03-23T08:58:50.147Z,19.12
2019-03-23T08:59:49.209Z,19.12
2019-03-23T09:00:49.193Z,19.14
2019-03-23T09:01:48.842Z,19.16
2019-03-23T09:02:48.900Z,19.15
2019-03-23T09:03:53.015Z,19.17
2019-03-23T09:04:48.983Z,19.17
2019-03-23T09:05:48.924Z,19.18
2019-03-23T09:06:49.049Z,19.22
2019-03-23T09:07:49.036Z,19.23
2019-03-23T09:08:49.100Z,19.22
2019-03-23T09:09:59.720Z,19.25
2019-03-23T09:10:49.029Z,19.27
2019-03-23T09:11:49.105Z,19.26
2019-03-23T09:12:49.149Z,19.29
2019-03-23T09:13:49.152Z,19.31
2019-03-23T09:14:49.048Z,19.33
2019-03-23T09:15:49.150Z,19.35
2019-03-23T09:16:49.135Z,19.38
2019-03-23T09:17:49.125Z,19.38
2019-03-23T09:18:49.096Z,19.41
2019-03-23T09:19:49.989Z,19.42
2019-03-23T09:20:50.007Z,19.44
2019-03-23T09:21:48.985Z,19.46
2019-03-23T09:22:48.905Z,19.47
2019-03-23T09:23:48.868Z,19.48
2019-03-23T09:24:48.934Z,19.48
2019-03-23T09:25:48.939Z,19.52
2019-03-23T09:26:48.981Z,19.52
2019-03-23T09:27:49.035Z,19.55
2019-03-23T09:28:49.013Z,19.54
2019-03-23T09:29:48.950Z,19.56
2019-03-23T09:30:48.976Z,19.59
2019-03-23T09:31:49.023Z,19.57
2019-03-23T09:32:49.186Z,19.58
2019-03-23T09:33:49.063Z,19.59
2019-03-23T09:34:49.026Z,19.6
2019-03-23T09:35:49.018Z,19.61
2019-03-23T09:36:49.072Z,19.62
2019-03-23T09:37:48.955Z,19.61
2019-03-23T09:38:48.862Z,19.65
2019-03-23T09:39:48.849Z,19.66
2019-03-23T09:40:48.907Z,19.66
2019-03-23T09:41:49.000Z,19.67
2019-03-23T09:42:49.085Z,19.67
2019-03-23T09:43:49.307Z,19.69
2019-03-23T09:44:49.034Z,19.7
2019-03-23T09:45:48.980Z,19.7
2019-03-23T09:46:49.046Z,19.71
2019-03-23T09:47:49.004Z,19.72
2019-03-23T09:48:48.988Z,19.73
2019-03-23T09:49:49.257Z,19.73
2019-03-23T09:50:48.984Z,19.71
2019-03-23T09:51:49.036Z,19.72
2019-03-23T09:52:49.048Z,19.75
2019-03-23T09:53:49.062Z,19.74
2019-03-23T09:54:48.905Z,19.76
2019-03-23T09:55:49.059Z,19.76
2019-03-23T09:56:48.915Z,19.77
2019-03-23T09:57:48.867Z,19.8
2019-03-23T09:58:49.139Z,19.75
2019-03-23T09:59:48.991Z,19.77
2019-03-23T10:00:48.939Z,19.77
2019-03-23T10:01:49.107Z,19.76
2019-03-23T10:02:48.947Z,19.74
2019-03-23T10:03:49.005Z,19.77
2019-03-23T10:04:48.838Z,19.77
2019-03-23T10:05:49.138Z,19.75
2019-03-23T10:06:49.027Z,19.76
2019-03-23T10:07:49.100Z,19.79
2019-03-23T10:08:49.036Z,19.76
2019-03-23T10:09:49.066Z,19.75
2019-03-23T10:10:48.882Z,19.77
2019-03-23T10:11:48.852Z,19.75
2019-03-23T10:12:49.007Z,19.77
2019-03-23T10:13:49.017Z,19.75
2019-03-23T10:14:48.905Z,19.75
2019-03-23T10:15:48.924Z,19.75
2019-03-23T10:16:48.971Z,19.77
2019-03-23T10:17:49.054Z,19.76
2019-03-23T10:18:48.933Z,19.77
2019-03-23T10:19:49.032Z,19.77
2019-03-23T10:20:49.224Z,19.75
2019-03-23T10:21:50.931Z,19.75
2019-03-23T10:22:49.047Z,19.75
2019-03-23T10:23:49.332Z,19.75
2019-03-23T10:24:49.088Z,19.75
2019-03-23T10:25:49.064Z,19.75
2019-03-23T10:26:48.859Z,19.75
2019-03-23T10:27:48.819Z,19.73
2019-03-23T10:28:49.027Z,19.75
2019-03-23T10:29:48.878Z,19.75
2019-03-23T10:30:48.885Z,19.75
2019-03-23T10:31:49.094Z,19.75
2019-03-23T10:32:48.891Z,19.76
2019-03-23T10:33:49.017Z,19.75
2019-03-23T10:34:49.059Z,19.76
2019-03-23T10:35:48.949Z,19.76
2019-03-23T10:36:49.069Z,19.75
2019-03-23T10:37:49.011Z,19.75
2019-03-23T10:38:49.057Z,19.76
2019-03-23T10:39:49.020Z,19.75
2019-03-23T10:40:48.824Z,19.75
2019-03-23T10:41:49.127Z,19.75
2019-03-23T10:42:48.932Z,19.73
2019-03-23T10:43:48.865Z,19.79
2019-03-23T10:44:49.021Z,19.76
2019-03-23T10:45:48.906Z,19.75
2019-03-23T10:46:48.931Z,19.76
2019-03-23T10:47:49.813Z,19.75
2019-03-23T10:48:48.864Z,19.74
2019-03-23T10:49:48.936Z,19.75
2019-03-23T10:50:49.058Z,19.75
2019-03-23T10:51:49.079Z,19.76
2019-03-23T10:52:49.000Z,19.76
2019-03-23T10:53:49.145Z,19.76
2019-03-23T10:54:49.064Z,19.77
2019-03-23T10:55:49.070Z,19.74
2019-03-23T10:56:48.822Z,19.75
2019-03-23T10:57:49.207Z,19.75
2019-03-23T10:58:48.827Z,19.76
2019-03-23T10:59:48.823Z,19.79
2019-03-23T11:00:49.030Z,19.8
2019-03-23T11:01:48.847Z,19.82
2019-03-23T11:02:48.851Z,19.81
2019-03-23T11:03:48.863Z,19.82
2019-03-23T11:04:49.202Z,19.83
2019-03-23T11:05:48.936Z,19.83
2019-03-23T11:06:48.848Z,19.85
2019-03-23T11:07:48.930Z,19.85
2019-03-23T11:08:48.951Z,19.86
2019-03-23T11:09:48.991Z,19.86
2019-03-23T11:10:49.056Z,19.88
2019-03-23T11:11:49.055Z,19.86
2019-03-23T11:12:49.667Z,19.89
2019-03-23T11:13:49.030Z,19.91
2019-03-23T11:14:48.833Z,19.92
2019-03-23T11:15:48.890Z,19.9
2019-03-23T11:16:48.926Z,19.92
2019-03-23T11:17:49.151Z,19.91
2019-03-23T11:18:48.941Z,19.94
2019-03-23T11:19:49.012Z,19.96
2019-03-23T11:20:48.799Z,19.95
2019-03-23T11:21:49.071Z,19.95
2019-03-23T11:22:48.986Z,19.97
2019-03-23T11:23:49.152Z,19.98
2019-03-23T11:24:49.090Z,19.98
2019-03-23T11:25:49.294Z,19.99
2019-03-23T11:26:49.257Z,19.99
2019-03-23T11:27:49.017Z,20
2019-03-23T11:28:49.056Z,20
2019-03-23T11:29:49.087Z,20.01
2019-03-23T11:30:48.799Z,19.99
2019-03-23T11:31:48.924Z,20.03
2019-03-23T11:32:48.842Z,20.02
2019-03-23T11:33:48.926Z,20.04
2019-03-23T11:34:48.883Z,20.04
2019-03-23T11:35:58.409Z,20.05
2019-03-23T11:36:49.102Z,20.04
2019-03-23T11:37:50.404Z,20.05
2019-03-23T11:38:48.924Z,20.07
2019-03-23T11:39:49.085Z,20.05
2019-03-23T11:40:55.538Z,20.05
2019-03-23T11:41:48.924Z,20.09
2019-03-23T11:42:50.766Z,20.07
2019-03-23T11:43:48.994Z,20.11
2019-03-23T11:44:49.758Z,20.07
2019-03-23T11:45:49.449Z,20.07
2019-03-23T11:46:49.203Z,20.09
2019-03-23T11:47:49.104Z,20.07
2019-03-23T11:48:48.913Z,20.07
2019-03-23T11:49:48.850Z,20.09
2019-03-23T11:50:48.950Z,20.07
2019-03-23T11:51:48.985Z,20.07
2019-03-23T11:52:48.900Z,20.09
2019-03-23T11:53:48.916Z,20.07
2019-03-23T11:54:48.944Z,20.07
2019-03-23T11:55:48.948Z,20.05
2019-03-23T11:56:49.204Z,20.07
2019-03-23T11:57:49.081Z,20.06
2019-03-23T11:58:48.842Z,20.07
2019-03-23T11:59:49.087Z,20.06
2019-03-23T12:00:49.136Z,20.05
2019-03-23T12:01:52.427Z,20.06
2019-03-23T12:02:48.860Z,20.05
2019-03-23T12:03:48.810Z,20.05
2019-03-23T12:04:48.909Z,20.05
2019-03-23T12:05:48.994Z,20.05
2019-03-23T12:06:48.813Z,20.04
2019-03-23T12:07:48.917Z,20.06
2019-03-23T12:08:49.444Z,20.04
2019-03-23T12:09:48.918Z,20.02
2019-03-23T12:10:48.922Z,20.01
2019-03-23T12:11:49.071Z,20.01
2019-03-23T12:12:49.090Z,20.01
2019-03-23T12:13:49.114Z,20.02
2019-03-23T12:14:49.002Z,20
2019-03-23T12:15:49.086Z,20.01
2019-03-23T12:16:48.945Z,20.01
2019-03-23T12:17:48.897Z,20.01
2019-03-23T12:18:48.925Z,20.01
2019-03-23T12:19:48.931Z,20.01
2019-03-23T12:20:49.022Z,20
2019-03-23T12:21:51.069Z,19.99
2019-03-23T12:22:48.774Z,20
2019-03-23T12:23:48.874Z,19.99
2019-03-23T12:24:48.974Z,19.99
2019-03-23T12:25:48.923Z,19.99
2019-03-23T12:26:48.945Z,19.98
2019-03-23T12:27:49.001Z,19.98
2019-03-23T12:28:49.098Z,19.97
2019-03-23T12:29:49.068Z,19.98
2019-03-23T12:30:48.813Z,19.97
2019-03-23T12:31:48.899Z,19.97
2019-03-23T12:32:49.170Z,19.97
2019-03-23T12:33:48.873Z,19.96
2019-03-23T12:34:48.783Z,19.97
2019-03-23T12:35:48.806Z,19.96
2019-03-23T12:36:48.835Z,19.95
2019-03-23T12:37:48.788Z,19.98
2019-03-23T12:38:48.845Z,19.95
2019-03-23T12:39:48.852Z,19.98
2019-03-23T12:40:48.988Z,19.97
2019-03-23T12:41:48.978Z,19.97
2019-03-23T12:42:48.984Z,19.95
2019-03-23T12:43:48.958Z,19.96
2019-03-23T12:44:48.937Z,19.96
2019-03-23T12:45:48.941Z,19.95
2019-03-23T12:46:49.151Z,19.96
2019-03-23T12:47:49.039Z,19.94
2019-03-23T12:48:49.064Z,19.94
2019-03-23T12:49:49.012Z,19.95
2019-03-23T12:50:48.898Z,19.94
2019-03-23T12:51:53.222Z,19.94
2019-03-23T12:52:49.267Z,19.94
2019-03-23T12:53:48.860Z,19.94
2019-03-23T12:54:48.966Z,19.95
2019-03-23T12:55:48.979Z,19.95